This is the latest recevied weather packets stored in our database for station/object SQ5SUI-3. If no packets are shown the sender has not sent any weather packets the latest 10 day(s).
| Time | Temp. | Humidity | Pressure | Rain* | Wind** | Luminosity | Snow |
|---|---|---|---|---|---|---|---|
| 1777674659 | 9.44° C | 65% | 999.1 hPa | 0 mm | - | - | - |
| 1777672858 | 11.11° C | 59% | 999.1 hPa | 0 mm | - | - | - |
| 1777671059 | 11.67° C | 57% | 999.2 hPa | 0 mm | - | - | - |
| 1777670722 | 11.67° C | 58% | 999.5 hPa | 0 mm | - | - | - |
| 1777668922 | 11.67° C | 59% | 999.6 hPa | 0 mm | - | - | - |
| 1777667122 | 10.56° C | 59% | 999.7 hPa | 0 mm | - | - | - |
| 1777665322 | 11.67° C | 54% | 1000 hPa | 0 mm | - | - | - |
| 1777663521 | 11.67° C | 53% | 1000.1 hPa | 0 mm | - | - | - |
| 1777661722 | 12.78° C | 49% | 1000.5 hPa | 0 mm | - | - | - |
| 1777659921 | 15° C | 42% | 1000.6 hPa | 0 mm | - | - | - |
| 1777658122 | 16.11° C | 40% | 1000.9 hPa | 0 mm | - | - | - |
| 1777656322 | 17.78° C | 32% | 1001.1 hPa | 0 mm | - | - | - |
| 1777654521 | 18.89° C | 32% | 1001.1 hPa | 0 mm | - | - | - |
| 1777652720 | 18.33° C | 32% | 1000.6 hPa | 0 mm | - | - | - |
| 1777650922 | 19.44° C | 27% | 1000.7 hPa | 0 mm | - | - | - |
| 1777649120 | 20.56° C | 25% | 1000.4 hPa | 0 mm | - | - | - |
| 1777647322 | 20.56° C | 24% | 1000.2 hPa | 0 mm | - | - | - |
| 1777645522 | 21.11° C | 29% | 999.7 hPa | 0 mm | - | - | - |
| 1777643722 | 19.44° C | 32% | 999.3 hPa | 0 mm | - | - | - |
| 1777641920 | 20.56° C | 30% | 999 hPa | 0 mm | - | - | - |
| 1777640122 | 20.56° C | 28% | 998.6 hPa | 0 mm | - | - | - |
| 1777638322 | 19.44° C | 31% | 998.1 hPa | 0 mm | - | - | - |
| 1777636520 | 18.33° C | 32% | 997.7 hPa | 0 mm | - | - | - |
| 1777634721 | 17.78° C | 32% | 997.5 hPa | 0 mm | - | - | - |
| 1777632922 | 18.89° C | 31% | 997.6 hPa | 0 mm | - | - | - |
* Rain latest hour (hover to see other rain measurements)
** Current wind speed in m/s (hover to see current wind gust speed)